ASN logo
ASN Wikibase Occurrence # 245360
Last updated: 30 November 2021
This information is added by users of ASN. Neither ASN nor the Flight Safety Foundation are responsible for the completeness or correctness of this information. If you feel this information is incomplete or incorrect, you can submit corrected information.

Date:04-DEC-2020
Time:c. 15:55
Type:Silhouette image of generic C303 model; specific model in this crash may look slightly different
Cessna T303 Crusader
Owner/operator:303 Flyers AG
Registration: HB-LUV
MSN: T30300058
Fatalities:Fatalities: 0 / Occupants: 3
Other fatalities:0
Aircraft damage: Substantial
Category:Accident
Location:Annecy-Meythet Airport (NCY/LFLP) -   France
Phase: Landing
Nature:Private
Departure airport:Marseille-Provence Airport (MRS/LFML)
Destination airport:Annecy-Meythet Airport (NCY/LFLP)
Investigating agency: BEA
Narrative:
A Cessna T303 Crusader veered off the runway upon landing in snowy weather conditions at Annecy-Meythet Airport (NCY/LFLP).
All three occupants were injured, two seriously.

Weather about the accident time (1455Z):
LFLP 041500Z AUTO 00000KT 1800 -SN BR SCT004 BKN011 OVC017 00/00 Q0990 TEMPO 1000 -SN OVC002
LFLP 041430Z AUTO 33001KT 2900 -SN BR BKN006/// OVC021/// ///TCU 01/00 Q0989 TEMPO 1000 -SN OVC002
LFLP 041400Z AUTO VRB02KT 5000 1300 R04/P5000 -SNRA BR FEW011 SCT017 BKN023 01/00 Q0990 TEMPO 1000 -SN OVC002

Sources:

https://www.lessorsavoyard.fr/18274/article/2020-12-04/annecy-un-avion-rate-son-atterrissage-et-traverse-la-route
https://www.lefigaro.fr/flash-actu/annecy-un-petit-avion-fait-une-sortie-de-piste-3-blesses-20201204
https://www.ledauphine.com/faits-divers-justice/2020/12/04/accident-d-avion-a-annecy-un-appareil-manque-son-atterrissage-et-traverse-une-route-bordant-l-aeroport
https://www.francebleu.fr/infos/faits-divers-justice/annecy-un-avion-traverse-la-route-a-meythet-1607097450?fbclid=IwAR0FZ7irpx9V_BZiLEGSO5pbODS7-2gX1qmrXqjg2e7Pj4ASSC0mIPgYCmE
https://www.flightradar24.com/data/aircraft/hb-luv#2637e12f

https://cdn.jetphotos.com/full/5/70090_1505406047.jpg (photo)

Media:


Images:

Photo of HB-LUV courtesy AirHistory.net


Zürich (LSZH / ZRH)
24 January 2020; (c) Joop de Groot


Photo: BEA

Revision history:

Date/timeContributorUpdates
04-Dec-2020 17:42 gerard57 Added
04-Dec-2020 17:57 gerard57 Updated [Aircraft type]
04-Dec-2020 18:05 RobertMB Updated [Time, Aircraft type, Registration, Cn, Operator, Location, Departure airport, Destination airport, Source, Narrative]
04-Dec-2020 18:06 harro Updated [Time, Operator, Location, Source, Narrative]
04-Dec-2020 18:16 RobertMB Updated [Time, Operator, Location, Source, Narrative]
04-Dec-2020 19:53 harro Updated [Photo]
04-Dec-2020 19:55 harro Updated [Narrative]
04-Dec-2020 21:19 Iceman 29 Updated [Embed code]

Corrections or additions? ... Edit this accident description